Thunderstorms From: 26-05-2018 09:00 Until: 27-05-2018 05:00 warning for: Thunderstorms Level: Yellow info button

Although rather usual in this region, locally or potentially dangerous phenomena are expected. (such as local winds, summer thunderstorms, rising streams or high waves) Be aware and pay attention to the latest weather updates, especially if you carry out activities exposed to weather or close to a stream or shoreline. 


Meteo18 Weather Cam more information Meteo18 Weather Cam


warning for Thunderstorms more information blitzortung!


Rain radar more information rain snow radar


Visit our other weather sites:

Template documentation
and downloads

And another site



Weather Underground History page Text

Daily Summary for February 18, 2017 Units:  English    Metric   Both
« Previous Day
Next Day »
Daily Weekly Monthly Yearly Custom
  High: Low: Average:
Temperature: TemperatureC °F 1.4 °F 6.5 °F
Dew Point: DewpointC °F 0.8 °F 3.1 °F
Humidity: Humidity % 52 % 79 %
Wind Speed: WindSpeedKMH mph 0.0 mph 3.7 mph
Wind Gust: WindSpeedGustKMH mph - -
Wind:- - East
Pressure: PressurehPa in 1023.6 in -
Precipitation: 0.3 in    
Historical Graphs
 
 
Tabular Data for February 18, 2017
Time Temperature Dew Point Pressure Wind Wind Speed Wind Gust Humidity Rainfall Rate (Hourly)
TemperatureC °F DewpointC °F PressurehPa in Calm     Humidity % HourlyPrecipMM in
00:02 4.8 °F 3.5 °F 1028.0 in Calm   1.6 mph 91 % 0.0 in
00:07 4.7 °F 3.4 °F 1028.0 in Calm   1.6 mph 91 % 0.0 in
00:12 4.6 °F 3.3 °F 1028.0 in Calm   1.6 mph 91 % 0.0 in
00:17 4.5 °F 3.3 °F 1028.0 in Calm   1.6 mph 92 % 0.0 in
00:22 4.7 °F 3.5 °F 1028.0 in Calm   1.6 mph 92 % 0.0 in
00:32 4.8 °F 3.5 °F 1028.0 in Calm   1.6 mph 91 % 0.0 in
00:42 4.9 °F 3.6 °F 1028.0 in Calm   1.6 mph 91 % 0.0 in
00:47 5.1 °F 3.6 °F 1027.7 in NNW 1.6 mph 3.2 mph 90 % 0.0 in
00:52 5.1 °F 3.6 °F 1027.7 in Calm   3.2 mph 90 % 0.0 in
00:57 4.2 °F 2.4 °F 1027.7 in West 1.6 mph 3.2 mph 88 % 0.0 in
01:02 3.7 °F 2.5 °F 1027.7 in WNW 3.2 mph 3.2 mph 92 % 0.0 in
01:07 3.8 °F 2.9 °F 1027.7 in WNW 1.6 mph 4.8 mph 94 % 0.0 in
01:12 4.2 °F 3.2 °F 1027.7 in NW 1.6 mph 4.8 mph 93 % 0.0 in
01:17 3.9 °F 2.4 °F 1027.7 in WNW 1.6 mph 4.8 mph 90 % 0.0 in
01:22 3.6 °F 2.4 °F 1027.7 in WNW 1.6 mph 3.2 mph 92 % 0.0 in
01:32 4.4 °F 3.4 °F 1027.7 in Calm   3.2 mph 93 % 0.0 in
01:42 4.7 °F 3.4 °F 1027.7 in Calm   1.6 mph 91 % 0.0 in
01:47 4.7 °F 3.4 °F 1027.7 in Calm   1.6 mph 91 % 0.0 in
01:52 4.6 °F 3.1 °F 1027.7 in Calm   1.6 mph 90 % 0.0 in
01:57 4.3 °F 2.8 °F 1027.7 in Calm   1.6 mph 90 % 0.0 in
02:02 4.2 °F 2.7 °F 1027.7 in North 1.6 mph 1.6 mph 90 % 0.0 in
02:12 4.1 °F 2.8 °F 1027.3 in NNW 1.6 mph 3.2 mph 91 % 0.0 in
02:17 3.9 °F 2.6 °F 1027.3 in Calm   3.2 mph 91 % 0.0 in
02:22 3.8 °F 2.5 °F 1027.3 in Calm   1.6 mph 91 % 0.0 in
02:27 3.8 °F 2.6 °F 1027.3 in Calm   1.6 mph 92 % 0.0 in
02:32 3.7 °F 2.5 °F 1027.3 in Calm     92 % 0.0 in
02:37 3.7 °F 2.5 °F 1027.3 in Calm     92 % 0.0 in
02:47 3.6 °F 2.4 °F 1027.3 in NW 1.6 mph 3.2 mph 92 % 0.0 in
02:57 3.5 °F 2.3 °F 1027.3 in Calm   3.2 mph 92 % 0.0 in
03:02 3.5 °F 2.5 °F 1027.0 in NNW 1.6 mph 3.2 mph 93 % 0.0 in
03:12 3.4 °F 2.4 °F 1027.0 in NW 1.6 mph 1.6 mph 93 % 0.0 in
03:17 3.5 °F 2.5 °F 1027.0 in Calm   1.6 mph 93 % 0.0 in
03:22 3.5 °F 2.5 °F 1027.0 in Calm   3.2 mph 93 % 0.0 in
03:27 3.4 °F 2.4 °F 1027.0 in Calm   3.2 mph 93 % 0.0 in
03:32 3.3 °F 2.3 °F 1027.0 in Calm   3.2 mph 93 % 0.0 in
03:37 3.3 °F 2.3 °F 1027.0 in Calm   3.2 mph 93 % 0.0 in
03:42 3.1 °F 2.1 °F 1027.0 in NNW 1.6 mph 3.2 mph 93 % 0.0 in
03:47 3.1 °F 2.1 °F 1027.0 in Calm   3.2 mph 93 % 0.0 in
03:52 3.0 °F 2.0 °F 1027.0 in Calm   3.2 mph 93 % 0.0 in
03:57 3.0 °F 2.1 °F 1027.0 in Calm   3.2 mph 94 % 0.0 in
04:02 2.9 °F 1.9 °F 1026.6 in Calm   3.2 mph 93 % 0.0 in
04:12 2.9 °F 2.0 °F 1026.6 in Calm   3.2 mph 94 % 0.0 in
04:22 3.1 °F 2.2 °F 1026.6 in Calm     94 % 0.0 in
04:32 3.2 °F 2.3 °F 1026.6 in Calm     94 % 0.0 in
04:37 3.2 °F 2.3 °F 1026.6 in Calm     94 % 0.0 in
04:42 3.1 °F 2.1 °F 1026.6 in Calm     93 % 0.0 in
04:47 3.0 °F 2.0 °F 1026.6 in Calm     93 % 0.0 in
04:52 3.0 °F 2.1 °F 1026.6 in Calm     94 % 0.0 in
05:02 2.8 °F 1.9 °F 1026.6 in Calm     94 % 0.0 in
05:12 3.3 °F 2.4 °F 1026.3 in Calm     94 % 0.0 in
05:22 3.1 °F 2.1 °F 1026.3 in Calm     93 % 0.0 in
05:32 3.1 °F 2.2 °F 1026.3 in North 1.6 mph   94 % 0.0 in
05:42 2.9 °F 1.9 °F 1026.3 in Calm   3.2 mph 93 % 0.0 in
05:52 2.5 °F 1.5 °F 1026.3 in Calm   1.6 mph 93 % 0.0 in
05:57 2.3 °F 1.4 °F 1026.3 in Calm     94 % 0.0 in
06:02 2.4 °F 1.7 °F 1026.6 in Calm     95 % 0.0 in
06:07 2.7 °F 2.0 °F 1026.3 in Calm     95 % 0.0 in
06:12 2.7 °F 2.0 °F 1026.3 in Calm     95 % 0.0 in
06:17 2.7 °F 1.8 °F 1026.3 in Calm   1.6 mph 94 % 0.0 in
06:22 2.4 °F 1.5 °F 1026.3 in Calm   1.6 mph 94 % 0.0 in
06:32 2.4 °F 1.7 °F 1026.3 in Calm   1.6 mph 95 % 0.0 in
06:42 2.3 °F 1.4 °F 1026.3 in Calm     94 % 0.0 in
06:47 1.9 °F 1.0 °F 1026.3 in Calm     94 % 0.0 in
06:52 1.8 °F 0.9 °F 1026.3 in Calm     94 % 0.0 in
07:02 1.7 °F 0.8 °F 1026.3 in Calm     94 % 0.0 in
07:12 1.7 °F 1.1 °F 1026.3 in Calm     96 % 0.0 in
07:17 1.7 °F 1.0 °F 1026.3 in Calm     95 % 0.0 in
07:22 1.6 °F 0.9 °F 1026.3 in Calm     95 % 0.0 in
07:32 1.9 °F 1.3 °F 1026.3 in Calm     96 % 0.0 in
07:42 1.8 °F 1.1 °F 1026.3 in Calm     95 % 0.0 in
07:47 1.5 °F 0.8 °F 1026.3 in Calm     95 % 0.0 in
07:52 1.4 °F 0.8 °F 1026.3 in Calm     96 % 0.0 in
08:02 1.7 °F 1.1 °F 1026.3 in Calm     96 % 0.0 in
08:12 1.8 °F 1.2 °F 1026.3 in Calm     96 % 0.0 in
08:17 1.7 °F 1.0 °F 1026.3 in Calm   1.6 mph 95 % 0.0 in
08:22 1.6 °F 0.9 °F 1026.3 in Calm   1.6 mph 95 % 0.0 in
08:32 1.8 °F 1.2 °F 1026.3 in Calm   1.6 mph 96 % 0.0 in
08:42 2.1 °F 1.5 °F 1026.3 in Calm     96 % 0.0 in
08:52 2.3 °F 1.7 °F 1026.3 in Calm     96 % 0.3 in
09:02 2.5 °F 1.8 °F 1026.3 in Calm     95 % 0.3 in
09:12 3.1 °F 2.4 °F 1026.0 in NNE 3.2 mph   95 % 0.3 in
09:17 3.3 °F 2.4 °F 1026.3 in Calm     94 % 0.3 in
09:22 3.6 °F 2.7 °F 1026.3 in Calm   3.2 mph 94 % 0.3 in
09:37 4.6 °F 3.3 °F 1026.0 in ENE 1.6 mph 1.6 mph 91 % 0.3 in
09:42 4.7 °F 3.4 °F 1026.3 in Calm   1.6 mph 91 % 0.3 in
09:47 4.7 °F 3.0 °F 1026.3 in Calm   3.2 mph 89 % 0.0 in
09:52 4.5 °F 2.8 °F 1026.3 in NE 3.2 mph 3.2 mph 89 % 0.0 in
10:02 4.8 °F 3.1 °F 1026.3 in Calm   6.4 mph 89 % 0.0 in
10:12 5.2 °F 3.5 °F 1026.3 in ESE 3.2 mph 4.8 mph 89 % 0.0 in
10:17 5.4 °F 3.6 °F 1026.3 in ENE 1.6 mph 8.0 mph 88 % 0.0 in
10:22 5.5 °F 3.7 °F 1026.3 in East 1.6 mph 9.7 mph 88 % 0.0 in
10:32 5.9 °F 4.1 °F 1026.3 in ENE 3.2 mph 9.7 mph 88 % 0.0 in
10:37 6.0 °F 4.0 °F 1026.3 in ENE 3.2 mph 8.0 mph 87 % 0.0 in
10:42 6.2 °F 4.0 °F 1026.3 in ENE 4.8 mph 8.0 mph 86 % 0.0 in
10:47 6.3 °F 4.1 °F 1026.3 in NNE 3.2 mph 8.0 mph 86 % 0.0 in
10:52 6.5 °F 4.2 °F 1026.3 in Calm   8.0 mph 85 % 0.0 in
10:57 6.7 °F 4.2 °F 1026.3 in Calm   8.0 mph 84 % 0.0 in
11:02 6.9 °F 4.4 °F 1026.3 in Calm   8.0 mph 84 % 0.0 in
11:07 7.1 °F 4.6 °F 1026.0 in East 4.8 mph 9.7 mph 84 % 0.0 in
11:12 7.2 °F 4.7 °F 1026.0 in NNE 1.6 mph 9.7 mph 84 % 0.0 in
11:17 7.3 °F 4.6 °F 1026.0 in ENE 3.2 mph 9.7 mph 83 % 0.0 in
11:22 7.5 °F 4.8 °F 1026.0 in East 8.0 mph 9.7 mph 83 % 0.0 in
11:32 7.8 °F 4.9 °F 1026.0 in ENE 3.2 mph 11.3 mph 82 % 0.0 in
11:37 8.0 °F 5.1 °F 1026.0 in North 4.8 mph 11.3 mph 82 % 0.0 in
11:42 8.2 °F 5.3 °F 1026.0 in ENE 3.2 mph 11.3 mph 82 % 0.0 in
11:47 8.4 °F 5.3 °F 1026.0 in ENE 3.2 mph 11.3 mph 81 % 0.0 in
11:52 8.6 °F 5.5 °F 1026.0 in ENE 1.6 mph 9.7 mph 81 % 0.0 in
11:57 8.7 °F 5.4 °F 1026.0 in ENE 1.6 mph 9.7 mph 80 % 0.0 in
12:02 8.8 °F 5.2 °F 1026.0 in ENE 4.8 mph 9.7 mph 78 % 0.0 in
12:07 9.1 °F 5.1 °F 1026.0 in NE 6.4 mph 9.7 mph 76 % 0.0 in
12:12 9.2 °F 5.2 °F 1026.0 in ENE 4.8 mph 12.9 mph 76 % 0.0 in
12:22 9.4 °F 5.4 °F 1025.6 in NE 8.0 mph 12.9 mph 76 % 0.0 in
12:32 9.9 °F 5.5 °F 1025.6 in ENE 6.4 mph 11.3 mph 74 % 0.0 in
12:37 10.0 °F 5.2 °F 1025.6 in ENE 3.2 mph 11.3 mph 72 % 0.0 in
12:42 10.2 °F 5.4 °F 1025.3 in ENE 4.8 mph 11.3 mph 72 % 0.0 in
12:47 10.3 °F 4.9 °F 1025.3 in NE 9.7 mph 12.9 mph 69 % 0.0 in
12:52 10.3 °F 4.2 °F 1025.3 in East 4.8 mph 14.5 mph 66 % 0.0 in
12:57 10.3 °F 4.9 °F 1025.3 in NNE 8.0 mph 14.5 mph 69 % 0.0 in
13:02 10.4 °F 4.7 °F 1025.3 in NNE 8.0 mph 14.5 mph 68 % 0.0 in
13:07 10.5 °F 5.1 °F 1024.9 in NE 6.4 mph 12.9 mph 69 % 0.0 in
13:17 10.7 °F 5.5 °F 1024.9 in NE 9.7 mph 12.9 mph 70 % 0.0 in
13:22 10.9 °F 5.4 °F 1024.9 in ENE 4.8 mph 12.9 mph 69 % 0.0 in
13:27 10.9 °F 4.6 °F 1024.9 in East 4.8 mph 12.9 mph 65 % 0.0 in
13:32 10.9 °F 5.2 °F 1024.6 in NE 8.0 mph 11.3 mph 68 % 0.0 in
13:37 11.0 °F 5.3 °F 1024.6 in ENE 14.5 mph 16.1 mph 68 % 0.0 in
13:42 11.1 °F 5.0 °F 1024.6 in NE 3.2 mph 17.7 mph 66 % 0.0 in
13:47 11.1 °F 5.2 °F 1024.6 in NNE 6.4 mph 17.7 mph 67 % 0.0 in
13:52 11.1 °F 5.2 °F 1024.6 in NNW 8.0 mph 17.7 mph 67 % 0.0 in
13:57 11.1 °F 4.8 °F 1024.6 in NNE 12.9 mph 17.7 mph 65 % 0.0 in
14:02 11.3 °F 4.7 °F 1024.3 in NE 9.7 mph 17.7 mph 64 % 0.0 in
14:07 11.4 °F 4.1 °F 1024.3 in NNE 3.2 mph 19.3 mph 61 % 0.0 in
14:12 11.6 °F 5.0 °F 1024.3 in NE 9.7 mph 19.3 mph 64 % 0.0 in
14:17 11.4 °F 4.1 °F 1024.3 in NNE 16.1 mph 19.3 mph 61 % 0.0 in
14:22 11.4 °F 4.4 °F 1024.3 in NE 3.2 mph 20.9 mph 62 % 0.0 in
14:32 11.4 °F 3.7 °F 1023.9 in NE 8.0 mph 20.9 mph 59 % 0.0 in
14:37 11.4 °F 3.7 °F 1023.9 in NE 12.9 mph 20.9 mph 59 % 0.0 in
14:42 11.5 °F 4.0 °F 1023.9 in East 6.4 mph 20.9 mph 60 % 0.0 in
14:47 11.6 °F 4.3 °F 1023.9 in NE 8.0 mph 20.9 mph 61 % 0.0 in
14:52 11.7 °F 4.2 °F 1023.9 in NE 11.3 mph 20.9 mph 60 % 0.0 in
14:57 11.7 °F 4.2 °F 1023.9 in ENE 8.0 mph 20.9 mph 60 % 0.0 in
15:02 11.8 °F 4.3 °F 1023.9 in East 8.0 mph 20.9 mph 60 % 0.0 in
15:07 11.8 °F 4.3 °F 1023.9 in ENE 9.7 mph 20.9 mph 60 % 0.0 in
15:12 11.8 °F 3.8 °F 1023.9 in ENE 12.9 mph 17.7 mph 58 % 0.0 in
15:17 11.8 °F 3.8 °F 1023.9 in NE 8.0 mph 19.3 mph 58 % 0.0 in
15:22 11.8 °F 3.8 °F 1023.9 in ENE 14.5 mph 25.7 mph 58 % 0.0 in
15:32 11.9 °F 3.4 °F 1023.6 in East 8.0 mph 25.7 mph 56 % 0.0 in
15:37 11.9 °F 3.6 °F 1023.6 in NE 16.1 mph 20.9 mph 57 % 0.0 in
15:42 11.8 °F 3.8 °F 1023.6 in ENE 12.9 mph 22.5 mph 58 % 0.0 in
15:47 11.8 °F 3.6 °F 1023.6 in NE 8.0 mph 22.5 mph 57 % 0.0 in
15:52 11.8 °F 3.8 °F 1023.6 in NNE 16.1 mph 24.1 mph 58 % 0.0 in
15:57 11.9 °F 3.1 °F 1023.6 in NE 8.0 mph 24.1 mph 55 % 0.0 in
16:02 11.9 °F 2.9 °F 1023.6 in East 8.0 mph 24.1 mph 54 % 0.0 in
16:07 12.0 °F 3.5 °F 1023.6 in ENE 16.1 mph 17.7 mph 56 % 0.0 in
16:12 11.9 °F 3.9 °F 1023.6 in NE 8.0 mph 20.9 mph 58 % 0.0 in
16:17 11.9 °F 3.6 °F 1023.6 in NE 9.7 mph 20.9 mph 57 % 0.0 in
16:22 12.0 °F 3.5 °F 1023.6 in ENE 6.4 mph 20.9 mph 56 % 0.0 in
16:32 12.1 °F 2.5 °F 1023.6 in ENE 8.0 mph 17.7 mph 52 % 0.0 in
16:42 12.0 °F 3.5 °F 1023.6 in NE 3.2 mph 16.1 mph 56 % 0.0 in
16:47 11.9 °F 3.1 °F 1023.6 in ENE 14.5 mph 16.1 mph 55 % 0.0 in
16:52 11.8 °F 3.0 °F 1023.9 in NNE 14.5 mph 19.3 mph 55 % 0.0 in
17:02 11.7 °F 3.2 °F 1023.9 in ENE 6.4 mph 19.3 mph 56 % 0.0 in
17:12 11.6 °F 3.4 °F 1023.9 in NE 11.3 mph 16.1 mph 57 % 0.0 in
17:17 11.5 °F 3.5 °F 1023.9 in NE 6.4 mph 16.1 mph 58 % 0.0 in
17:22 11.4 °F 3.2 °F 1023.9 in NNE 9.7 mph 16.1 mph 57 % 0.0 in
17:32 11.3 °F 3.6 °F 1023.9 in NNE 9.7 mph 12.9 mph 59 % 0.0 in
17:37 11.2 °F 3.5 °F 1023.9 in NE 9.7 mph 11.3 mph 59 % 0.0 in
17:47 11.0 °F 3.5 °F 1023.9 in NNE 11.3 mph 14.5 mph 60 % 0.0 in
17:52 10.9 °F 3.4 °F 1023.9 in NE 12.9 mph 19.3 mph 60 % 0.0 in
18:07 10.4 °F 3.7 °F 1024.3 in NE 6.4 mph 17.7 mph 63 % 0.0 in
18:12 10.2 °F 3.9 °F 1024.3 in NE 11.3 mph 12.9 mph 65 % 0.0 in
18:17 10.0 °F 3.7 °F 1024.3 in NNE 9.7 mph 12.9 mph 65 % 0.0 in
18:22 9.8 °F 3.5 °F 1024.3 in NE 9.7 mph 16.1 mph 65 % 0.0 in
18:32 9.5 °F 3.5 °F 1024.3 in NNE 8.0 mph 16.1 mph 66 % 0.0 in
18:37 9.3 °F 3.5 °F 1024.3 in NNE 8.0 mph 14.5 mph 67 % 0.0 in
18:42 9.1 °F 3.3 °F 1024.3 in NE 6.4 mph 14.5 mph 67 % 0.0 in
18:47 9.1 °F 3.5 °F 1024.3 in NNE 8.0 mph 14.5 mph 68 % 0.0 in
18:52 8.9 °F 3.3 °F 1024.3 in NE 8.0 mph 14.5 mph 68 % 0.0 in
18:57 8.8 °F 3.4 °F 1024.3 in NNE 9.7 mph 14.5 mph 69 % 0.0 in
19:02 8.7 °F 3.3 °F 1024.3 in NNE 9.7 mph 12.9 mph 69 % 0.0 in
19:07 8.6 °F 3.2 °F 1024.3 in NNE 9.7 mph 14.5 mph 69 % 0.0 in
19:12 8.6 °F 3.2 °F 1024.3 in NNE 8.0 mph 14.5 mph 69 % 0.0 in
19:17 8.4 °F 3.0 °F 1024.3 in NE 8.0 mph 14.5 mph 69 % 0.0 in
19:22 8.3 °F 3.1 °F 1024.3 in NNE 8.0 mph 12.9 mph 70 % 0.0 in
19:32 7.9 °F 3.0 °F 1024.3 in NNE 1.6 mph 12.9 mph 71 % 0.0 in
19:37 7.7 °F 3.2 °F 1024.3 in NNE 4.8 mph 12.9 mph 73 % 0.0 in
19:42 7.6 °F 3.1 °F 1024.3 in NNE 6.4 mph 9.7 mph 73 % 0.0 in
19:47 7.5 °F 3.2 °F 1024.6 in North 6.4 mph 9.7 mph 74 % 0.0 in
19:52 7.5 °F 3.2 °F 1024.6 in North 6.4 mph 12.9 mph 74 % 0.0 in
19:57 7.4 °F 3.3 °F 1024.3 in NE 4.8 mph 12.9 mph 75 % 0.0 in
20:02 7.5 °F 3.4 °F 1024.6 in NNE 11.3 mph 11.3 mph 75 % 0.0 in
20:12 7.2 °F 3.3 °F 1024.6 in North 1.6 mph 12.9 mph 76 % 0.0 in
20:17 7.0 °F 3.2 °F 1024.6 in NNE 3.2 mph 12.9 mph 77 % 0.0 in
20:22 6.9 °F 3.1 °F 1024.6 in North 1.6 mph 9.7 mph 77 % 0.0 in
20:27 6.8 °F 3.2 °F 1024.6 in Calm   6.4 mph 78 % 0.0 in
20:32 6.8 °F 3.1 °F 1024.6 in North 4.8 mph 6.4 mph 77 % 0.0 in
20:37 6.7 °F 3.1 °F 1024.6 in NE 4.8 mph 11.3 mph 78 % 0.0 in
20:42 6.8 °F 3.2 °F 1024.6 in NNE 9.7 mph 11.3 mph 78 % 0.0 in
20:47 6.8 °F 3.1 °F 1024.6 in NNE 1.6 mph 11.3 mph 77 % 0.0 in
20:52 6.8 °F 3.1 °F 1024.6 in NE 1.6 mph 11.3 mph 77 % 0.0 in
20:57 6.7 °F 3.1 °F 1024.6 in NE 4.8 mph 11.3 mph 78 % 0.0 in
21:02 6.8 °F 2.9 °F 1024.6 in NNE 6.4 mph 9.7 mph 76 % 0.0 in
21:07 7.1 °F 3.0 °F 1024.6 in NE 8.0 mph 12.9 mph 75 % 0.0 in
21:17 6.9 °F 2.8 °F 1024.6 in NE 4.8 mph 16.1 mph 75 % 0.0 in
21:22 6.7 °F 3.0 °F 1024.6 in NE 3.2 mph 16.1 mph 77 % 0.0 in
21:32 6.4 °F 2.8 °F 1024.6 in NNE 1.6 mph 9.7 mph 78 % 0.0 in
21:37 6.3 °F 2.7 °F 1024.6 in North 1.6 mph 9.7 mph 78 % 0.0 in
21:42 6.2 °F 2.6 °F 1024.6 in Calm   8.0 mph 78 % 0.0 in
21:47 6.0 °F 2.6 °F 1024.6 in NNW 1.6 mph 6.4 mph 79 % 0.0 in
21:52 5.7 °F 2.3 °F 1024.6 in Calm   4.8 mph 79 % 0.0 in
21:57 5.6 °F 2.4 °F 1024.6 in Calm   1.6 mph 80 % 0.0 in
22:02 5.5 °F 2.5 °F 1024.6 in Calm   1.6 mph 81 % 0.0 in
22:12 5.6 °F 2.4 °F 1024.6 in Calm     80 % 0.0 in
22:17 5.4 °F 2.4 °F 1024.6 in Calm   1.6 mph 81 % 0.0 in
22:22 5.2 °F 2.2 °F 1024.6 in WNW 1.6 mph 1.6 mph 81 % 0.0 in
22:32 5.3 °F 2.3 °F 1024.6 in WNW 1.6 mph 3.2 mph 81 % 0.0 in
22:37 4.8 °F 1.8 °F 1024.6 in Calm   3.2 mph 81 % 0.0 in
22:42 4.9 °F 2.3 °F 1024.6 in Calm   3.2 mph 83 % 0.0 in
22:47 5.1 °F 2.3 °F 1024.9 in NW 1.6 mph 3.2 mph 82 % 0.0 in
22:52 5.1 °F 2.3 °F 1024.6 in NNW 1.6 mph 1.6 mph 82 % 0.0 in
22:57 5.0 °F 2.2 °F 1024.6 in Calm   3.2 mph 82 % 0.0 in
23:02 4.9 °F 2.1 °F 1024.9 in Calm   3.2 mph 82 % 0.0 in
23:07 4.8 °F 2.0 °F 1024.6 in Calm   3.2 mph 82 % 0.0 in
23:12 4.7 °F 2.1 °F 1024.6 in Calm   1.6 mph 83 % 0.0 in
23:17 4.7 °F 2.1 °F 1024.6 in Calm   1.6 mph 83 % 0.0 in
23:22 4.6 °F 2.0 °F 1024.6 in Calm   1.6 mph 83 % 0.0 in
23:27 4.4 °F 1.8 °F 1024.6 in Calm   1.6 mph 83 % 0.0 in
23:32 4.3 °F 1.8 °F 1024.6 in Calm   1.6 mph 84 % 0.0 in
23:37 4.3 °F 2.0 °F 1024.6 in Calm   1.6 mph 85 % 0.0 in
23:42 4.2 °F 1.7 °F 1024.9 in Calm   1.6 mph 84 % 0.0 in
23:47 4.0 °F 1.7 °F 1024.9 in NNW 1.6 mph 1.6 mph 85 % 0.0 in
23:52 3.8 °F 1.5 °F 1024.9 in Calm   3.2 mph 85 % 0.0 in
23:57 3.8 °F 1.7 °F 1024.9 in NW 1.6 mph 3.2 mph 86 % 0.0 in
Meteo18
Compliments of Weather Underground - 4 mb

Script developed by  Jim McMurry - jmcmurry@mwt.net Adapted for the template by  Wim van der Kuil - Leuven-Template.eu

You find our weather info also at:

European Weather Network

Weather Underground

Equipment we use:

Weather-station
Davis Vue

Weather-program
Meteobridge

Weather-server
Raspberry PI 2 B+

Provider
1 and 1

Davis Vue

Meteobridge

Raspberry PI 2 B+

1 and 1